sensor_id;sensor_type;location;lat;lon;timestamp;P1;durP1;ratioP1;P2;durP2;ratioP2
23115;SDS011;11727;52.134;5.052;2023-05-08T00:00:04;4.85;;;2.90;;
23115;SDS011;11727;52.134;5.052;2023-05-08T00:02:36;3.88;;;2.85;;
23115;SDS011;11727;52.134;5.052;2023-05-08T00:05:09;7.22;;;4.07;;
23115;SDS011;11727;52.134;5.052;2023-05-08T00:07:55;6.30;;;3.90;;
23115;SDS011;11727;52.134;5.052;2023-05-08T00:10:28;5.30;;;3.20;;
23115;SDS011;11727;52.134;5.052;2023-05-08T00:12:55;6.50;;;3.47;;
23115;SDS011;11727;52.134;5.052;2023-05-08T00:15:21;5.95;;;3.80;;
23115;SDS011;11727;52.134;5.052;2023-05-08T00:17:50;9.23;;;4.72;;
23115;SDS011;11727;52.134;5.052;2023-05-08T00:20:21;7.15;;;4.00;;
23115;SDS011;11727;52.134;5.052;2023-05-08T00:22:48;5.57;;;3.85;;
23115;SDS011;11727;52.134;5.052;2023-05-08T00:25:16;5.53;;;3.58;;
23115;SDS011;11727;52.134;5.052;2023-05-08T00:27:54;5.65;;;3.65;;
23115;SDS011;11727;52.134;5.052;2023-05-08T00:30:44;7.13;;;4.35;;
23115;SDS011;11727;52.134;5.052;2023-05-08T00:34:04;7.50;;;3.83;;
23115;SDS011;11727;52.134;5.052;2023-05-08T00:37:03;7.78;;;4.47;;
23115;SDS011;11727;52.134;5.052;2023-05-08T00:39:30;5.50;;;3.60;;
23115;SDS011;11727;52.134;5.052;2023-05-08T00:42:06;4.53;;;3.63;;
23115;SDS011;11727;52.134;5.052;2023-05-08T00:44:47;9.43;;;4.07;;
23115;SDS011;11727;52.134;5.052;2023-05-08T00:47:25;6.63;;;4.40;;
23115;SDS011;11727;52.134;5.052;2023-05-08T00:50:07;5.57;;;3.92;;
23115;SDS011;11727;52.134;5.052;2023-05-08T00:52:56;6.15;;;4.20;;
23115;SDS011;11727;52.134;5.052;2023-05-08T00:55:26;6.70;;;3.85;;
23115;SDS011;11727;52.134;5.052;2023-05-08T01:00:20;6.00;;;3.88;;
23115;SDS011;11727;52.134;5.052;2023-05-08T01:02:48;5.88;;;3.80;;
23115;SDS011;11727;52.134;5.052;2023-05-08T01:05:15;5.85;;;3.78;;
23115;SDS011;11727;52.134;5.052;2023-05-08T01:07:41;5.75;;;3.25;;
23115;SDS011;11727;52.134;5.052;2023-05-08T01:10:07;6.43;;;3.80;;
23115;SDS011;11727;52.134;5.052;2023-05-08T01:12:45;6.03;;;3.47;;
23115;SDS011;11727;52.134;5.052;2023-05-08T01:15:30;5.90;;;3.60;;
23115;SDS011;11727;52.134;5.052;2023-05-08T01:18:15;7.38;;;4.22;;
23115;SDS011;11727;52.134;5.052;2023-05-08T01:20:59;5.97;;;3.70;;
23115;SDS011;11727;52.134;5.052;2023-05-08T01:34:48;10.07;;;4.18;;
23115;SDS011;11727;52.134;5.052;2023-05-08T01:37:50;7.30;;;4.90;;
23115;SDS011;11727;52.134;5.052;2023-05-08T01:45:53;7.15;;;4.63;;
23115;SDS011;11727;52.134;5.052;2023-05-08T01:50:59;8.07;;;4.00;;
23115;SDS011;11727;52.134;5.052;2023-05-08T01:53:28;7.63;;;4.63;;
23115;SDS011;11727;52.134;5.052;2023-05-08T01:55:59;7.20;;;4.95;;
23115;SDS011;11727;52.134;5.052;2023-05-08T01:58:32;6.75;;;4.43;;
23115;SDS011;11727;52.134;5.052;2023-05-08T02:00:59;10.43;;;4.05;;
23115;SDS011;11727;52.134;5.052;2023-05-08T02:03:26;7.60;;;4.50;;
23115;SDS011;11727;52.134;5.052;2023-05-08T02:05:55;7.50;;;4.53;;
23115;SDS011;11727;52.134;5.052;2023-05-08T02:08:23;7.15;;;4.30;;
23115;SDS011;11727;52.134;5.052;2023-05-08T02:10:50;7.25;;;4.80;;
23115;SDS011;11727;52.134;5.052;2023-05-08T02:13:18;6.87;;;4.20;;
23115;SDS011;11727;52.134;5.052;2023-05-08T02:15:48;6.97;;;4.15;;
23115;SDS011;11727;52.134;5.052;2023-05-08T02:18:17;9.10;;;4.10;;
23115;SDS011;11727;52.134;5.052;2023-05-08T02:20:46;6.53;;;4.85;;
23115;SDS011;11727;52.134;5.052;2023-05-08T02:23:14;5.45;;;4.00;;
23115;SDS011;11727;52.134;5.052;2023-05-08T02:25:43;7.43;;;4.13;;
23115;SDS011;11727;52.134;5.052;2023-05-08T02:28:11;9.30;;;4.57;;
23115;SDS011;11727;52.134;5.052;2023-05-08T02:30:36;6.10;;;4.22;;
23115;SDS011;11727;52.134;5.052;2023-05-08T02:33:04;6.95;;;4.15;;
23115;SDS011;11727;52.134;5.052;2023-05-08T02:35:32;6.15;;;4.28;;
23115;SDS011;11727;52.134;5.052;2023-05-08T02:37:59;8.30;;;4.67;;
23115;SDS011;11727;52.134;5.052;2023-05-08T02:40:26;5.85;;;3.88;;
23115;SDS011;11727;52.134;5.052;2023-05-08T02:42:53;5.75;;;3.75;;
23115;SDS011;11727;52.134;5.052;2023-05-08T02:45:19;5.47;;;3.90;;
23115;SDS011;11727;52.134;5.052;2023-05-08T02:47:57;6.90;;;4.63;;
23115;SDS011;11727;52.134;5.052;2023-05-08T02:50:42;8.20;;;4.97;;
23115;SDS011;11727;52.134;5.052;2023-05-08T02:53:17;7.93;;;4.50;;
23115;SDS011;11727;52.134;5.052;2023-05-08T02:55:51;6.78;;;4.32;;
23115;SDS011;11727;52.134;5.052;2023-05-08T02:58:39;9.05;;;4.38;;
23115;SDS011;11727;52.134;5.052;2023-05-08T03:01:19;13.88;;;5.10;;
23115;SDS011;11727;52.134;5.052;2023-05-08T03:03:52;7.63;;;3.88;;
23115;SDS011;11727;52.134;5.052;2023-05-08T03:06:45;8.18;;;4.57;;
23115;SDS011;11727;52.134;5.052;2023-05-08T03:09:18;6.95;;;4.28;;
23115;SDS011;11727;52.134;5.052;2023-05-08T03:11:47;8.48;;;4.18;;
23115;SDS011;11727;52.134;5.052;2023-05-08T03:14:18;7.70;;;4.82;;
23115;SDS011;11727;52.134;5.052;2023-05-08T03:16:46;7.57;;;4.20;;
23115;SDS011;11727;52.134;5.052;2023-05-08T03:19:21;6.05;;;4.25;;
23115;SDS011;11727;52.134;5.052;2023-05-08T03:21:51;8.57;;;3.95;;
23115;SDS011;11727;52.134;5.052;2023-05-08T03:24:18;6.95;;;4.57;;
23115;SDS011;11727;52.134;5.052;2023-05-08T03:29:12;7.63;;;4.32;;
23115;SDS011;11727;52.134;5.052;2023-05-08T03:31:40;7.72;;;4.65;;
23115;SDS011;11727;52.134;5.052;2023-05-08T03:34:06;6.03;;;4.03;;
23115;SDS011;11727;52.134;5.052;2023-05-08T03:36:33;5.47;;;3.63;;
23115;SDS011;11727;52.134;5.052;2023-05-08T03:38:59;6.93;;;4.28;;
23115;SDS011;11727;52.134;5.052;2023-05-08T03:41:26;6.95;;;4.43;;
23115;SDS011;11727;52.134;5.052;2023-05-08T03:43:52;6.47;;;4.00;;
23115;SDS011;11727;52.134;5.052;2023-05-08T03:46:18;7.13;;;4.13;;
23115;SDS011;11727;52.134;5.052;2023-05-08T03:48:45;7.87;;;4.77;;
23115;SDS011;11727;52.134;5.052;2023-05-08T03:51:12;6.53;;;3.92;;
23115;SDS011;11727;52.134;5.052;2023-05-08T03:53:39;5.72;;;3.20;;
23115;SDS011;11727;52.134;5.052;2023-05-08T03:56:05;7.88;;;3.78;;
23115;SDS011;11727;52.134;5.052;2023-05-08T03:58:40;7.65;;;4.32;;
23115;SDS011;11727;52.134;5.052;2023-05-08T04:04:00;7.97;;;3.78;;
23115;SDS011;11727;52.134;5.052;2023-05-08T04:12:13;7.88;;;4.10;;
23115;SDS011;11727;52.134;5.052;2023-05-08T04:14:46;7.13;;;4.20;;
23115;SDS011;11727;52.134;5.052;2023-05-08T04:17:16;6.25;;;4.15;;
23115;SDS011;11727;52.134;5.052;2023-05-08T04:19:53;9.75;;;4.20;;
23115;SDS011;11727;52.134;5.052;2023-05-08T04:22:28;8.13;;;4.07;;
23115;SDS011;11727;52.134;5.052;2023-05-08T04:24:57;6.63;;;4.60;;
23115;SDS011;11727;52.134;5.052;2023-05-08T04:27:27;7.45;;;4.07;;
23115;SDS011;11727;52.134;5.052;2023-05-08T04:29:53;7.45;;;4.38;;
23115;SDS011;11727;52.134;5.052;2023-05-08T04:32:20;9.95;;;3.88;;
23115;SDS011;11727;52.134;5.052;2023-05-08T04:34:46;8.98;;;3.90;;
23115;SDS011;11727;52.134;5.052;2023-05-08T04:37:26;8.80;;;4.93;;
23115;SDS011;11727;52.134;5.052;2023-05-08T04:39:53;7.95;;;4.50;;
23115;SDS011;11727;52.134;5.052;2023-05-08T04:42:19;8.32;;;5.03;;
23115;SDS011;11727;52.134;5.052;2023-05-08T04:44:45;9.00;;;5.25;;
23115;SDS011;11727;52.134;5.052;2023-05-08T04:47:11;10.27;;;5.82;;
23115;SDS011;11727;52.134;5.052;2023-05-08T04:49:37;15.70;;;7.03;;
23115;SDS011;11727;52.134;5.052;2023-05-08T04:52:03;10.27;;;5.70;;
23115;SDS011;11727;52.134;5.052;2023-05-08T04:54:30;12.48;;;7.40;;
23115;SDS011;11727;52.134;5.052;2023-05-08T04:56:56;14.13;;;6.60;;
23115;SDS011;11727;52.134;5.052;2023-05-08T04:59:22;11.93;;;6.78;;
23115;SDS011;11727;52.134;5.052;2023-05-08T05:01:49;13.27;;;6.38;;
23115;SDS011;11727;52.134;5.052;2023-05-08T05:04:15;12.10;;;7.30;;
23115;SDS011;11727;52.134;5.052;2023-05-08T05:06:40;12.82;;;7.30;;
23115;SDS011;11727;52.134;5.052;2023-05-08T05:09:06;15.15;;;7.70;;
23115;SDS011;11727;52.134;5.052;2023-05-08T05:11:32;11.75;;;7.15;;
23115;SDS011;11727;52.134;5.052;2023-05-08T05:13:58;13.48;;;7.60;;
23115;SDS011;11727;52.134;5.052;2023-05-08T05:19:11;13.48;;;7.32;;
23115;SDS011;11727;52.134;5.052;2023-05-08T05:21:37;26.13;;;9.98;;
23115;SDS011;11727;52.134;5.052;2023-05-08T05:24:03;22.20;;;8.73;;
23115;SDS011;11727;52.134;5.052;2023-05-08T05:26:29;15.53;;;8.60;;
23115;SDS011;11727;52.134;5.052;2023-05-08T05:28:55;16.85;;;8.13;;
23115;SDS011;11727;52.134;5.052;2023-05-08T05:31:21;14.98;;;8.50;;
23115;SDS011;11727;52.134;5.052;2023-05-08T05:33:46;16.98;;;9.23;;
23115;SDS011;11727;52.134;5.052;2023-05-08T05:36:12;24.48;;;11.07;;
23115;SDS011;11727;52.134;5.052;2023-05-08T05:38:38;20.67;;;10.32;;
23115;SDS011;11727;52.134;5.052;2023-05-08T05:41:03;17.48;;;10.07;;
23115;SDS011;11727;52.134;5.052;2023-05-08T05:43:29;20.60;;;10.10;;
23115;SDS011;11727;52.134;5.052;2023-05-08T05:45:54;25.65;;;11.95;;
23115;SDS011;11727;52.134;5.052;2023-05-08T05:48:20;22.67;;;11.48;;
23115;SDS011;11727;52.134;5.052;2023-05-08T05:50:46;21.90;;;10.88;;
23115;SDS011;11727;52.134;5.052;2023-05-08T05:53:11;18.88;;;9.77;;
23115;SDS011;11727;52.134;5.052;2023-05-08T05:55:37;20.33;;;9.90;;
23115;SDS011;11727;52.134;5.052;2023-05-08T05:58:03;18.15;;;9.57;;
23115;SDS011;11727;52.134;5.052;2023-05-08T06:00:28;20.92;;;9.90;;
23115;SDS011;11727;52.134;5.052;2023-05-08T06:02:55;21.02;;;9.80;;
23115;SDS011;11727;52.134;5.052;2023-05-08T06:05:21;21.33;;;11.25;;
23115;SDS011;11727;52.134;5.052;2023-05-08T06:07:47;23.90;;;11.95;;
23115;SDS011;11727;52.134;5.052;2023-05-08T06:10:13;19.23;;;10.32;;
23115;SDS011;11727;52.134;5.052;2023-05-08T06:12:39;20.52;;;10.60;;
23115;SDS011;11727;52.134;5.052;2023-05-08T06:15:05;22.50;;;11.00;;
23115;SDS011;11727;52.134;5.052;2023-05-08T06:17:31;19.60;;;10.55;;
23115;SDS011;11727;52.134;5.052;2023-05-08T06:20:04;19.58;;;11.73;;
23115;SDS011;11727;52.134;5.052;2023-05-08T06:25:52;26.75;;;12.23;;
23115;SDS011;11727;52.134;5.052;2023-05-08T06:29:13;23.38;;;12.70;;
23115;SDS011;11727;52.134;5.052;2023-05-08T06:32:02;27.25;;;14.32;;
23115;SDS011;11727;52.134;5.052;2023-05-08T06:34:27;27.55;;;14.13;;
23115;SDS011;11727;52.134;5.052;2023-05-08T06:36:53;24.73;;;12.35;;
23115;SDS011;11727;52.134;5.052;2023-05-08T06:39:18;23.35;;;13.35;;
23115;SDS011;11727;52.134;5.052;2023-05-08T06:41:47;27.10;;;14.80;;
23115;SDS011;11727;52.134;5.052;2023-05-08T06:44:13;26.58;;;13.77;;
23115;SDS011;11727;52.134;5.052;2023-05-08T06:46:40;33.15;;;14.40;;
23115;SDS011;11727;52.134;5.052;2023-05-08T06:49:06;25.35;;;13.50;;
23115;SDS011;11727;52.134;5.052;2023-05-08T06:51:31;30.65;;;14.77;;
23115;SDS011;11727;52.134;5.052;2023-05-08T06:53:59;25.25;;;13.70;;
23115;SDS011;11727;52.134;5.052;2023-05-08T06:56:25;36.47;;;16.60;;
23115;SDS011;11727;52.134;5.052;2023-05-08T06:58:51;31.98;;;14.80;;
23115;SDS011;11727;52.134;5.052;2023-05-08T07:01:16;35.42;;;16.20;;
23115;SDS011;11727;52.134;5.052;2023-05-08T07:03:42;40.70;;;18.38;;
23115;SDS011;11727;52.134;5.052;2023-05-08T07:06:08;34.90;;;17.45;;
23115;SDS011;11727;52.134;5.052;2023-05-08T07:08:34;40.63;;;19.73;;
23115;SDS011;11727;52.134;5.052;2023-05-08T07:11:00;45.03;;;20.80;;
23115;SDS011;11727;52.134;5.052;2023-05-08T07:13:26;40.70;;;19.13;;
23115;SDS011;11727;52.134;5.052;2023-05-08T07:15:52;53.30;;;20.92;;
23115;SDS011;11727;52.134;5.052;2023-05-08T07:18:18;46.90;;;21.05;;
23115;SDS011;11727;52.134;5.052;2023-05-08T07:20:43;44.05;;;20.27;;
23115;SDS011;11727;52.134;5.052;2023-05-08T07:23:09;46.40;;;20.75;;
23115;SDS011;11727;52.134;5.052;2023-05-08T07:25:35;56.47;;;22.80;;
23115;SDS011;11727;52.134;5.052;2023-05-08T07:28:00;50.92;;;22.58;;
23115;SDS011;11727;52.134;5.052;2023-05-08T07:30:26;49.35;;;21.75;;
23115;SDS011;11727;52.134;5.052;2023-05-08T07:32:52;53.05;;;22.50;;
23115;SDS011;11727;52.134;5.052;2023-05-08T07:35:17;53.15;;;22.58;;
23115;SDS011;11727;52.134;5.052;2023-05-08T07:37:43;49.25;;;22.73;;
23115;SDS011;11727;52.134;5.052;2023-05-08T07:40:09;60.63;;;23.52;;
23115;SDS011;11727;52.134;5.052;2023-05-08T07:42:41;60.63;;;25.05;;
23115;SDS011;11727;52.134;5.052;2023-05-08T07:45:08;57.60;;;25.15;;
23115;SDS011;11727;52.134;5.052;2023-05-08T07:47:35;58.42;;;24.40;;
23115;SDS011;11727;52.134;5.052;2023-05-08T07:50:02;63.75;;;24.38;;
23115;SDS011;11727;52.134;5.052;2023-05-08T07:52:28;65.65;;;25.65;;
23115;SDS011;11727;52.134;5.052;2023-05-08T07:54:53;61.47;;;25.95;;
23115;SDS011;11727;52.134;5.052;2023-05-08T07:57:19;57.30;;;26.35;;
23115;SDS011;11727;52.134;5.052;2023-05-08T07:59:45;60.42;;;24.67;;
23115;SDS011;11727;52.134;5.052;2023-05-08T08:02:10;66.18;;;25.08;;
23115;SDS011;11727;52.134;5.052;2023-05-08T08:04:36;59.35;;;24.85;;
23115;SDS011;11727;52.134;5.052;2023-05-08T08:07:01;58.63;;;24.25;;
23115;SDS011;11727;52.134;5.052;2023-05-08T08:09:27;60.33;;;23.90;;
23115;SDS011;11727;52.134;5.052;2023-05-08T08:11:53;64.50;;;26.17;;
23115;SDS011;11727;52.134;5.052;2023-05-08T08:14:18;61.90;;;26.00;;
23115;SDS011;11727;52.134;5.052;2023-05-08T08:16:44;64.95;;;26.38;;
23115;SDS011;11727;52.134;5.052;2023-05-08T08:19:09;68.07;;;26.40;;
23115;SDS011;11727;52.134;5.052;2023-05-08T08:21:35;62.70;;;25.10;;
23115;SDS011;11727;52.134;5.052;2023-05-08T08:24:05;51.88;;;23.15;;
23115;SDS011;11727;52.134;5.052;2023-05-08T08:26:31;56.78;;;26.48;;
23115;SDS011;11727;52.134;5.052;2023-05-08T08:28:57;71.53;;;29.13;;
23115;SDS011;11727;52.134;5.052;2023-05-08T08:31:22;65.05;;;26.98;;
23115;SDS011;11727;52.134;5.052;2023-05-08T08:33:48;64.65;;;27.38;;
23115;SDS011;11727;52.134;5.052;2023-05-08T08:36:14;78.80;;;29.63;;
23115;SDS011;11727;52.134;5.052;2023-05-08T08:38:40;73.60;;;29.80;;
23115;SDS011;11727;52.134;5.052;2023-05-08T08:41:06;67.22;;;28.95;;
23115;SDS011;11727;52.134;5.052;2023-05-08T08:43:32;71.25;;;28.42;;
23115;SDS011;11727;52.134;5.052;2023-05-08T08:46:00;73.20;;;28.48;;
23115;SDS011;11727;52.134;5.052;2023-05-08T08:48:33;78.35;;;29.95;;
23115;SDS011;11727;52.134;5.052;2023-05-08T08:51:01;69.45;;;29.45;;
23115;SDS011;11727;52.134;5.052;2023-05-08T08:53:34;75.22;;;30.95;;
23115;SDS011;11727;52.134;5.052;2023-05-08T08:56:06;71.20;;;29.45;;
23115;SDS011;11727;52.134;5.052;2023-05-08T08:58:37;74.35;;;30.05;;
23115;SDS011;11727;52.134;5.052;2023-05-08T09:01:12;80.53;;;31.08;;
23115;SDS011;11727;52.134;5.052;2023-05-08T09:03:40;70.10;;;28.48;;
23115;SDS011;11727;52.134;5.052;2023-05-08T09:06:06;64.93;;;29.33;;
23115;SDS011;11727;52.134;5.052;2023-05-08T09:08:32;68.95;;;28.15;;
23115;SDS011;11727;52.134;5.052;2023-05-08T09:10:58;72.63;;;31.67;;
23115;SDS011;11727;52.134;5.052;2023-05-08T09:13:26;69.20;;;30.25;;
23115;SDS011;11727;52.134;5.052;2023-05-08T09:15:53;72.78;;;30.17;;
23115;SDS011;11727;52.134;5.052;2023-05-08T09:18:18;69.78;;;30.75;;
23115;SDS011;11727;52.134;5.052;2023-05-08T09:20:44;71.07;;;30.25;;
23115;SDS011;11727;52.134;5.052;2023-05-08T09:23:10;83.07;;;31.92;;
23115;SDS011;11727;52.134;5.052;2023-05-08T09:25:48;76.15;;;31.85;;
23115;SDS011;11727;52.134;5.052;2023-05-08T09:28:21;72.95;;;31.40;;
23115;SDS011;11727;52.134;5.052;2023-05-08T09:33:22;68.10;;;29.90;;
23115;SDS011;11727;52.134;5.052;2023-05-08T09:35:52;70.35;;;31.58;;
23115;SDS011;11727;52.134;5.052;2023-05-08T09:38:31;80.80;;;32.25;;
23115;SDS011;11727;52.134;5.052;2023-05-08T09:41:06;66.68;;;28.73;;
23115;SDS011;11727;52.134;5.052;2023-05-08T09:43:39;75.88;;;32.55;;
23115;SDS011;11727;52.134;5.052;2023-05-08T09:46:18;74.97;;;32.00;;
23115;SDS011;11727;52.134;5.052;2023-05-08T09:48:51;78.53;;;32.40;;
23115;SDS011;11727;52.134;5.052;2023-05-08T09:51:18;72.15;;;30.52;;
23115;SDS011;11727;52.134;5.052;2023-05-08T09:53:44;70.15;;;31.77;;
23115;SDS011;11727;52.134;5.052;2023-05-08T09:56:10;85.07;;;36.03;;
23115;SDS011;11727;52.134;5.052;2023-05-08T09:58:39;79.10;;;33.92;;
23115;SDS011;11727;52.134;5.052;2023-05-08T10:01:07;78.32;;;33.40;;
23115;SDS011;11727;52.134;5.052;2023-05-08T10:03:51;78.50;;;32.00;;
23115;SDS011;11727;52.134;5.052;2023-05-08T10:06:16;83.32;;;33.92;;
23115;SDS011;11727;52.134;5.052;2023-05-08T10:08:42;71.47;;;34.53;;
23115;SDS011;11727;52.134;5.052;2023-05-08T10:11:16;77.28;;;32.53;;
23115;SDS011;11727;52.134;5.052;2023-05-08T10:13:46;78.22;;;35.28;;
23115;SDS011;11727;52.134;5.052;2023-05-08T10:16:16;76.40;;;34.50;;
23115;SDS011;11727;52.134;5.052;2023-05-08T10:18:48;72.15;;;33.40;;
23115;SDS011;11727;52.134;5.052;2023-05-08T10:21:15;85.93;;;35.85;;
23115;SDS011;11727;52.134;5.052;2023-05-08T10:23:42;84.47;;;37.00;;
23115;SDS011;11727;52.134;5.052;2023-05-08T10:26:18;80.80;;;34.88;;
23115;SDS011;11727;52.134;5.052;2023-05-08T10:28:55;75.22;;;32.92;;
23115;SDS011;11727;52.134;5.052;2023-05-08T10:31:23;73.15;;;32.30;;
23115;SDS011;11727;52.134;5.052;2023-05-08T10:33:50;68.75;;;32.45;;
23115;SDS011;11727;52.134;5.052;2023-05-08T10:36:21;77.57;;;34.60;;
23115;SDS011;11727;52.134;5.052;2023-05-08T10:38:47;81.18;;;34.20;;
23115;SDS011;11727;52.134;5.052;2023-05-08T10:41:14;69.67;;;32.20;;
23115;SDS011;11727;52.134;5.052;2023-05-08T10:43:40;83.65;;;33.10;;
23115;SDS011;11727;52.134;5.052;2023-05-08T10:46:08;66.35;;;31.65;;
23115;SDS011;11727;52.134;5.052;2023-05-08T10:51:31;68.68;;;30.88;;
23115;SDS011;11727;52.134;5.052;2023-05-08T10:54:05;75.20;;;32.13;;
23115;SDS011;11727;52.134;5.052;2023-05-08T10:56:37;70.25;;;30.58;;
23115;SDS011;11727;52.134;5.052;2023-05-08T10:59:03;63.03;;;28.00;;
23115;SDS011;11727;52.134;5.052;2023-05-08T11:01:29;68.80;;;29.15;;
23115;SDS011;11727;52.134;5.052;2023-05-08T11:03:55;56.40;;;27.13;;
23115;SDS011;11727;52.134;5.052;2023-05-08T11:09:07;58.28;;;26.20;;
23115;SDS011;11727;52.134;5.052;2023-05-08T11:11:34;58.33;;;27.75;;
23115;SDS011;11727;52.134;5.052;2023-05-08T11:19:20;55.53;;;26.02;;
23115;SDS011;11727;52.134;5.052;2023-05-08T11:24:46;60.05;;;27.40;;
23115;SDS011;11727;52.134;5.052;2023-05-08T11:27:29;62.13;;;27.88;;
23115;SDS011;11727;52.134;5.052;2023-05-08T11:40:49;52.88;;;23.05;;
23115;SDS011;11727;52.134;5.052;2023-05-08T11:46:04;45.75;;;20.05;;
23115;SDS011;11727;52.134;5.052;2023-05-08T11:48:37;35.30;;;18.23;;
23115;SDS011;11727;52.134;5.052;2023-05-08T11:51:04;44.03;;;19.67;;
23115;SDS011;11727;52.134;5.052;2023-05-08T11:53:31;34.15;;;17.17;;
23115;SDS011;11727;52.134;5.052;2023-05-08T11:55:57;38.92;;;16.75;;
23115;SDS011;11727;52.134;5.052;2023-05-08T11:58:24;43.28;;;19.10;;
23115;SDS011;11727;52.134;5.052;2023-05-08T12:00:50;42.47;;;18.13;;
23115;SDS011;11727;52.134;5.052;2023-05-08T12:03:18;47.08;;;19.63;;
23115;SDS011;11727;52.134;5.052;2023-05-08T12:05:46;40.28;;;17.67;;
23115;SDS011;11727;52.134;5.052;2023-05-08T12:08:13;48.03;;;18.88;;
23115;SDS011;11727;52.134;5.052;2023-05-08T12:10:54;36.55;;;18.17;;
23115;SDS011;11727;52.134;5.052;2023-05-08T12:15:49;37.15;;;18.92;;
23115;SDS011;11727;52.134;5.052;2023-05-08T12:18:22;43.03;;;20.15;;
23115;SDS011;11727;52.134;5.052;2023-05-08T12:20:52;43.17;;;18.05;;
23115;SDS011;11727;52.134;5.052;2023-05-08T12:23:21;45.33;;;19.42;;
23115;SDS011;11727;52.134;5.052;2023-05-08T12:25:46;42.25;;;19.17;;
23115;SDS011;11727;52.134;5.052;2023-05-08T12:28:15;46.33;;;18.38;;
23115;SDS011;11727;52.134;5.052;2023-05-08T12:30:41;41.60;;;18.63;;
23115;SDS011;11727;52.134;5.052;2023-05-08T12:33:06;37.00;;;17.55;;
23115;SDS011;11727;52.134;5.052;2023-05-08T12:35:32;44.63;;;18.48;;
23115;SDS011;11727;52.134;5.052;2023-05-08T12:37:59;48.20;;;16.55;;
23115;SDS011;11727;52.134;5.052;2023-05-08T12:42:53;34.77;;;15.60;;
23115;SDS011;11727;52.134;5.052;2023-05-08T12:45:28;29.45;;;15.52;;
23115;SDS011;11727;52.134;5.052;2023-05-08T12:47:58;37.72;;;16.52;;
23115;SDS011;11727;52.134;5.052;2023-05-08T12:50:28;35.75;;;17.27;;
23115;SDS011;11727;52.134;5.052;2023-05-08T12:53:01;30.15;;;15.55;;
23115;SDS011;11727;52.134;5.052;2023-05-08T12:55:35;25.00;;;12.65;;
23115;SDS011;11727;52.134;5.052;2023-05-08T12:58:02;30.83;;;13.82;;
23115;SDS011;11727;52.134;5.052;2023-05-08T13:00:44;32.67;;;14.02;;
23115;SDS011;11727;52.134;5.052;2023-05-08T13:03:12;24.50;;;12.73;;
23115;SDS011;11727;52.134;5.052;2023-05-08T13:05:45;23.42;;;12.18;;
23115;SDS011;11727;52.134;5.052;2023-05-08T13:08:12;20.77;;;10.80;;
23115;SDS011;11727;52.134;5.052;2023-05-08T13:13:17;25.75;;;11.90;;
23115;SDS011;11727;52.134;5.052;2023-05-08T13:15:44;22.00;;;11.55;;
23115;SDS011;11727;52.134;5.052;2023-05-08T13:18:11;25.38;;;11.98;;
23115;SDS011;11727;52.134;5.052;2023-05-08T13:20:37;27.35;;;13.05;;
23115;SDS011;11727;52.134;5.052;2023-05-08T13:23:05;26.50;;;12.77;;
23115;SDS011;11727;52.134;5.052;2023-05-08T13:25:31;28.05;;;14.13;;
23115;SDS011;11727;52.134;5.052;2023-05-08T13:27:58;27.40;;;14.93;;
23115;SDS011;11727;52.134;5.052;2023-05-08T13:30:24;29.52;;;15.18;;
23115;SDS011;11727;52.134;5.052;2023-05-08T13:32:49;33.25;;;14.63;;
23115;SDS011;11727;52.134;5.052;2023-05-08T13:35:16;31.67;;;14.80;;
23115;SDS011;11727;52.134;5.052;2023-05-08T13:37:42;29.25;;;15.10;;
23115;SDS011;11727;52.134;5.052;2023-05-08T13:40:09;26.60;;;14.77;;
23115;SDS011;11727;52.134;5.052;2023-05-08T13:42:35;26.33;;;12.73;;
23115;SDS011;11727;52.134;5.052;2023-05-08T13:45:01;32.67;;;14.63;;
23115;SDS011;11727;52.134;5.052;2023-05-08T13:47:29;29.40;;;14.85;;
23115;SDS011;11727;52.134;5.052;2023-05-08T13:49:55;27.23;;;13.48;;
23115;SDS011;11727;52.134;5.052;2023-05-08T13:52:20;23.42;;;12.77;;
23115;SDS011;11727;52.134;5.052;2023-05-08T13:54:46;28.83;;;14.48;;
23115;SDS011;11727;52.134;5.052;2023-05-08T13:57:11;29.02;;;13.70;;
23115;SDS011;11727;52.134;5.052;2023-05-08T13:59:37;27.17;;;13.30;;
23115;SDS011;11727;52.134;5.052;2023-05-08T14:02:25;29.38;;;13.13;;
23115;SDS011;11727;52.134;5.052;2023-05-08T14:04:51;28.13;;;12.43;;
23115;SDS011;11727;52.134;5.052;2023-05-08T14:07:17;25.67;;;13.48;;
23115;SDS011;11727;52.134;5.052;2023-05-08T14:09:43;28.90;;;13.35;;
23115;SDS011;11727;52.134;5.052;2023-05-08T14:12:09;28.08;;;13.18;;
23115;SDS011;11727;52.134;5.052;2023-05-08T14:14:35;28.83;;;13.27;;
23115;SDS011;11727;52.134;5.052;2023-05-08T14:17:00;30.65;;;13.45;;
23115;SDS011;11727;52.134;5.052;2023-05-08T14:19:26;27.13;;;13.25;;
23115;SDS011;11727;52.134;5.052;2023-05-08T14:21:52;25.60;;;12.18;;
23115;SDS011;11727;52.134;5.052;2023-05-08T14:24:17;26.05;;;12.77;;
23115;SDS011;11727;52.134;5.052;2023-05-08T14:26:43;33.25;;;15.02;;
23115;SDS011;11727;52.134;5.052;2023-05-08T14:29:09;26.63;;;13.60;;
23115;SDS011;11727;52.134;5.052;2023-05-08T14:31:34;27.25;;;12.68;;
23115;SDS011;11727;52.134;5.052;2023-05-08T14:34:00;24.65;;;12.60;;
23115;SDS011;11727;52.134;5.052;2023-05-08T14:36:25;29.75;;;14.35;;
23115;SDS011;11727;52.134;5.052;2023-05-08T14:38:51;32.28;;;15.57;;
23115;SDS011;11727;52.134;5.052;2023-05-08T14:41:17;26.35;;;13.88;;
23115;SDS011;11727;52.134;5.052;2023-05-08T14:43:42;27.58;;;14.65;;
23115;SDS011;11727;52.134;5.052;2023-05-08T14:46:08;31.15;;;14.77;;
23115;SDS011;11727;52.134;5.052;2023-05-08T14:48:34;31.20;;;16.70;;
23115;SDS011;11727;52.134;5.052;2023-05-08T14:50:59;38.75;;;17.63;;
23115;SDS011;11727;52.134;5.052;2023-05-08T14:53:25;32.10;;;16.40;;
23115;SDS011;11727;52.134;5.052;2023-05-08T14:55:51;35.80;;;16.15;;
23115;SDS011;11727;52.134;5.052;2023-05-08T14:58:16;33.63;;;15.88;;
23115;SDS011;11727;52.134;5.052;2023-05-08T15:00:42;34.85;;;16.27;;
23115;SDS011;11727;52.134;5.052;2023-05-08T15:03:08;38.40;;;16.70;;
23115;SDS011;11727;52.134;5.052;2023-05-08T15:05:33;34.00;;;16.02;;
23115;SDS011;11727;52.134;5.052;2023-05-08T15:07:59;42.72;;;19.25;;
23115;SDS011;11727;52.134;5.052;2023-05-08T15:10:26;37.08;;;17.00;;
23115;SDS011;11727;52.134;5.052;2023-05-08T15:12:52;39.63;;;17.63;;
23115;SDS011;11727;52.134;5.052;2023-05-08T15:15:18;50.72;;;18.63;;
23115;SDS011;11727;52.134;5.052;2023-05-08T15:17:43;45.72;;;18.63;;
23115;SDS011;11727;52.134;5.052;2023-05-08T15:20:09;47.72;;;20.48;;
23115;SDS011;11727;52.134;5.052;2023-05-08T15:22:35;45.35;;;18.90;;
23115;SDS011;11727;52.134;5.052;2023-05-08T15:25:01;63.13;;;22.70;;
23115;SDS011;11727;52.134;5.052;2023-05-08T15:27:27;67.50;;;24.17;;
23115;SDS011;11727;52.134;5.052;2023-05-08T15:29:53;54.05;;;22.30;;
23115;SDS011;11727;52.134;5.052;2023-05-08T15:32:19;83.40;;;27.20;;
23115;SDS011;11727;52.134;5.052;2023-05-08T15:34:45;61.85;;;23.40;;
23115;SDS011;11727;52.134;5.052;2023-05-08T15:37:10;66.20;;;25.45;;
23115;SDS011;11727;52.134;5.052;2023-05-08T15:39:36;78.88;;;27.98;;
23115;SDS011;11727;52.134;5.052;2023-05-08T15:42:02;87.03;;;28.77;;
23115;SDS011;11727;52.134;5.052;2023-05-08T15:44:30;84.68;;;27.70;;
23115;SDS011;11727;52.134;5.052;2023-05-08T15:46:56;85.50;;;28.83;;
23115;SDS011;11727;52.134;5.052;2023-05-08T15:49:22;91.45;;;31.10;;
23115;SDS011;11727;52.134;5.052;2023-05-08T15:51:52;88.05;;;30.75;;
23115;SDS011;11727;52.134;5.052;2023-05-08T15:54:20;79.55;;;28.42;;